createdAt,value
2018-07-25T00:01:36.606Z,96.50
2018-07-25T00:06:39.882Z,96.60
2018-07-25T00:11:43.157Z,96.40
2018-07-25T00:16:46.483Z,96.70
2018-07-25T00:21:49.799Z,97.70
2018-07-25T00:26:53.587Z,97.60
2018-07-25T00:31:56.963Z,98.30
2018-07-25T00:37:00.368Z,98.90
2018-07-25T00:42:05.574Z,98.50
2018-07-25T00:47:08.874Z,98.30
2018-07-25T00:52:12.361Z,98.10
2018-07-25T00:57:16.033Z,98.20
2018-07-25T01:02:19.761Z,99.20
2018-07-25T01:07:23.786Z,99.90
2018-07-25T01:12:27.684Z,99.90
2018-07-25T01:17:30.951Z,99.90
2018-07-25T01:22:34.344Z,99.90
2018-07-25T01:32:40.644Z,99.90
2018-07-25T01:37:43.907Z,99.90
2018-07-25T01:42:47.205Z,99.90
2018-07-25T01:47:50.513Z,99.90
2018-07-25T01:52:53.789Z,99.90
2018-07-25T01:57:57.062Z,99.90
2018-07-25T02:03:00.363Z,99.90
2018-07-25T02:08:03.655Z,99.90
2018-07-25T02:13:06.970Z,99.90
2018-07-25T02:18:10.256Z,99.90
2018-07-25T02:23:13.555Z,99.90
2018-07-25T02:28:16.868Z,99.90
2018-07-25T02:33:24.372Z,99.90
2018-07-25T02:38:27.655Z,99.90
2018-07-25T02:43:30.927Z,99.90
2018-07-25T02:48:34.184Z,99.90
2018-07-25T02:53:37.439Z,99.90
2018-07-25T02:58:47.298Z,99.90
2018-07-25T03:03:50.560Z,99.90
2018-07-25T03:08:53.853Z,99.90
2018-07-25T03:13:57.682Z,99.90
2018-07-25T03:19:00.979Z,99.90
2018-07-25T03:24:04.261Z,99.90
2018-07-25T03:29:07.566Z,99.90
2018-07-25T03:34:10.836Z,99.90
2018-07-25T03:39:14.083Z,99.90
2018-07-25T03:44:17.387Z,99.90
2018-07-25T03:49:20.651Z,99.90
2018-07-25T03:54:23.908Z,99.90
2018-07-25T03:59:27.173Z,99.90
2018-07-25T04:04:30.462Z,99.90
2018-07-25T04:09:33.714Z,99.90
2018-07-25T04:14:36.980Z,99.90
2018-07-25T04:19:40.241Z,99.90
2018-07-25T04:24:43.761Z,99.90
2018-07-25T04:29:47.035Z,99.90
2018-07-25T04:34:50.342Z,99.90
2018-07-25T04:39:53.603Z,99.90
2018-07-25T04:55:02.939Z,99.90
2018-07-25T05:00:06.266Z,99.90
2018-07-25T05:05:09.549Z,99.90
2018-07-25T05:10:12.851Z,99.90
2018-07-25T05:15:16.119Z,99.90
2018-07-25T05:20:19.413Z,99.90
2018-07-25T05:25:22.686Z,99.90
2018-07-25T05:35:29.495Z,99.90
2018-07-25T05:40:32.767Z,99.90
2018-07-25T05:45:36.052Z,99.90
2018-07-25T05:50:39.554Z,99.90
2018-07-25T05:55:42.818Z,99.90
2018-07-25T06:00:46.107Z,99.90
2018-07-25T06:05:49.444Z,99.90
2018-07-25T06:10:52.655Z,99.90
2018-07-25T06:15:55.926Z,99.90
2018-07-25T06:20:59.206Z,99.90
2018-07-25T06:26:02.609Z,99.90
2018-07-25T06:31:06.250Z,99.90
2018-07-25T06:36:09.531Z,99.90
2018-07-25T06:41:13.029Z,98.00
2018-07-25T06:46:17.039Z,96.50
2018-07-25T06:51:20.376Z,94.00
2018-07-25T06:56:23.669Z,94.50
2018-07-25T07:01:27.935Z,93.80
2018-07-25T07:06:31.208Z,92.50
2018-07-25T07:11:34.483Z,92.70
2018-07-25T07:16:38.407Z,90.00
2018-07-25T07:26:45.725Z,81.00
2018-07-25T07:31:49.075Z,84.80
2018-07-25T07:36:52.765Z,76.10
2018-07-25T07:41:56.119Z,75.30
2018-07-25T07:46:59.480Z,78.20
2018-07-25T07:52:02.989Z,78.90
2018-07-25T07:57:06.586Z,70.10
2018-07-25T08:02:10.014Z,69.90
2018-07-25T08:07:13.667Z,57.20
2018-07-25T08:17:20.581Z,60.90
2018-07-25T08:22:24.838Z,56.90
2018-07-25T08:27:28.129Z,56.90
2018-07-25T08:32:31.935Z,52.00
2018-07-25T08:37:35.948Z,52.80
2018-07-25T08:42:39.508Z,52.10
2018-07-25T08:52:46.785Z,46.20
2018-07-25T09:02:53.052Z,47.10
2018-07-25T09:07:56.327Z,47.10
2018-07-25T09:12:59.966Z,44.50
2018-07-25T09:18:04.785Z,42.10
2018-07-25T09:23:08.635Z,42.50
2018-07-25T09:28:13.274Z,40.60
2018-07-25T09:33:17.070Z,40.90
2018-07-25T09:38:20.332Z,38.50
2018-07-25T09:48:27.156Z,37.00
2018-07-25T09:53:30.507Z,37.40
2018-07-25T09:58:34.480Z,38.20
2018-07-25T10:03:38.779Z,37.30
2018-07-25T10:08:42.085Z,37.50
2018-07-25T10:13:45.404Z,38.80
2018-07-25T10:18:48.670Z,38.90
2018-07-25T10:23:51.928Z,36.60
2018-07-25T10:28:55.204Z,35.00
2018-07-25T10:33:58.472Z,33.10
2018-07-25T10:39:01.752Z,32.90
2018-07-25T10:44:05.075Z,34.40
2018-07-25T10:49:08.383Z,32.90
2018-07-25T10:54:11.667Z,35.20
2018-07-25T10:59:15.116Z,36.20
2018-07-25T11:04:18.387Z,38.20
2018-07-25T11:09:22.229Z,35.90
2018-07-25T11:14:25.548Z,34.40
2018-07-25T11:19:28.815Z,39.50
2018-07-25T11:29:35.107Z,36.90
2018-07-25T11:34:38.404Z,36.90
2018-07-25T11:39:41.664Z,33.80
2018-07-25T11:44:44.936Z,29.70
2018-07-25T11:49:48.222Z,29.50
2018-07-25T11:54:51.504Z,31.60
2018-07-25T11:59:54.747Z,34.20
2018-07-25T12:04:57.999Z,34.80
2018-07-25T12:10:01.280Z,37.90
2018-07-25T12:15:06.149Z,37.30
2018-07-25T12:20:09.407Z,42.10
2018-07-25T12:25:12.704Z,42.60
2018-07-25T12:30:15.972Z,40.70
2018-07-25T12:35:19.228Z,41.10
2018-07-25T12:40:22.514Z,37.40
2018-07-25T12:50:28.931Z,37.60
2018-07-25T13:00:35.466Z,37.10
2018-07-25T13:05:38.718Z,40.70
2018-07-25T13:10:42.028Z,49.80
2018-07-25T13:20:48.340Z,68.20
2018-07-25T13:25:51.640Z,83.40
2018-07-25T13:41:00.976Z,88.30
2018-07-25T13:46:04.679Z,90.40
2018-07-25T14:01:14.912Z,69.50
2018-07-25T14:06:18.199Z,63.00
2018-07-25T14:11:21.462Z,63.60
2018-07-25T14:16:24.740Z,62.20
2018-07-25T14:21:28.019Z,48.70
2018-07-25T14:31:34.359Z,43.70
2018-07-25T14:36:37.653Z,42.50
2018-07-25T14:41:41.498Z,37.70
2018-07-25T14:46:44.822Z,36.40
2018-07-25T14:51:48.038Z,34.50
2018-07-25T14:56:51.332Z,36.00
2018-07-25T15:01:54.583Z,41.30
2018-07-25T15:06:57.919Z,43.00
2018-07-25T15:12:01.209Z,43.90
2018-07-25T15:17:04.543Z,46.70
2018-07-25T15:22:07.820Z,47.40
2018-07-25T15:27:11.115Z,48.50
2018-07-25T15:32:14.422Z,47.60
2018-07-25T15:37:17.682Z,42.80
2018-07-25T15:42:20.968Z,43.70
2018-07-25T15:47:24.290Z,43.50
2018-07-25T15:52:27.567Z,41.50
2018-07-25T15:57:30.827Z,43.30
2018-07-25T16:07:37.427Z,48.10
2018-07-25T16:12:40.874Z,55.50
2018-07-25T16:22:47.757Z,59.60
2018-07-25T16:37:57.236Z,58.70
2018-07-25T16:43:00.498Z,59.20
2018-07-25T16:48:03.766Z,57.90
2018-07-25T16:53:07.035Z,58.70
2018-07-25T16:58:10.462Z,57.70
2018-07-25T17:03:13.870Z,58.60
2018-07-25T17:08:17.405Z,60.20
2018-07-25T17:13:21.025Z,59.60
2018-07-25T17:18:24.308Z,60.60
2018-07-25T17:28:30.602Z,65.70
2018-07-25T17:33:33.903Z,64.10
2018-07-25T17:38:37.198Z,63.40
2018-07-25T17:43:40.488Z,66.80
2018-07-25T17:53:46.804Z,68.60
2018-07-25T18:03:53.324Z,71.00
2018-07-25T18:14:05.067Z,71.10
2018-07-25T18:19:08.923Z,72.10
2018-07-25T18:24:13.160Z,71.40
2018-07-25T18:29:16.721Z,71.50
2018-07-25T18:34:19.989Z,72.40
2018-07-25T18:39:23.346Z,74.30
2018-07-25T19:09:41.759Z,83.10
2018-07-25T19:19:53.675Z,81.00
2018-07-25T19:30:00.653Z,87.20
2018-07-25T19:45:09.952Z,94.10
2018-07-25T19:50:13.248Z,97.90
2018-07-25T20:05:22.616Z,99.90
2018-07-25T20:30:43.488Z,99.90
2018-07-25T21:21:14.979Z,99.90
2018-07-25T21:26:18.244Z,99.90
2018-07-25T21:31:21.542Z,99.90
2018-07-25T21:36:25.360Z,99.90
2018-07-25T21:41:29.177Z,99.90
2018-07-25T21:46:33.011Z,99.90
2018-07-25T21:51:36.706Z,99.90
2018-07-25T21:56:40.551Z,99.90
2018-07-25T22:01:43.906Z,99.90
2018-07-25T22:06:47.173Z,99.90
2018-07-25T22:11:50.410Z,99.90
2018-07-25T22:16:53.720Z,99.90
2018-07-25T22:21:56.985Z,99.90
2018-07-25T22:27:00.251Z,99.90
2018-07-25T22:32:04.008Z,99.90
2018-07-25T22:37:07.504Z,99.90
2018-07-25T22:47:14.059Z,99.90
2018-07-25T22:52:17.311Z,99.90
2018-07-25T22:57:21.228Z,99.90
2018-07-25T23:02:24.493Z,99.90
2018-07-25T23:07:27.766Z,99.90
2018-07-25T23:12:31.364Z,99.90
2018-07-25T23:17:34.620Z,99.90
2018-07-25T23:22:50.059Z,99.90
2018-07-25T23:27:54.463Z,99.90
2018-07-25T23:32:57.752Z,99.90
2018-07-25T23:38:01.020Z,99.90
2018-07-25T23:43:04.303Z,99.90
2018-07-25T23:48:07.564Z,99.90
2018-07-25T23:53:10.823Z,99.90
2018-07-25T23:58:14.086Z,99.90
